sensor_id;sensor_type;location;lat;lon;timestamp;P1;durP1;ratioP1;P2;durP2;ratioP2
51122;SDS011;37162;41.724;13.346;2023-03-03T00:01:26;2.15;;;1.33;;
51122;SDS011;37162;41.724;13.346;2023-03-03T00:03:52;2.03;;;1.55;;
51122;SDS011;37162;41.724;13.346;2023-03-03T00:06:18;2.22;;;1.52;;
51122;SDS011;37162;41.724;13.346;2023-03-03T00:08:44;1.35;;;1.25;;
51122;SDS011;37162;41.724;13.346;2023-03-03T00:11:10;2.78;;;1.77;;
51122;SDS011;37162;41.724;13.346;2023-03-03T00:16:22;1.27;;;1.00;;
51122;SDS011;37162;41.724;13.346;2023-03-03T00:18:49;3.88;;;1.27;;
51122;SDS011;37162;41.724;13.346;2023-03-03T00:21:26;1.13;;;1.00;;
51122;SDS011;37162;41.724;13.346;2023-03-03T00:24:17;1.63;;;1.40;;
51122;SDS011;37162;41.724;13.346;2023-03-03T00:26:42;1.30;;;1.13;;
51122;SDS011;37162;41.724;13.346;2023-03-03T00:31:50;1.85;;;1.20;;
51122;SDS011;37162;41.724;13.346;2023-03-03T00:36:41;1.23;;;1.10;;
51122;SDS011;37162;41.724;13.346;2023-03-03T00:39:17;1.75;;;1.30;;
51122;SDS011;37162;41.724;13.346;2023-03-03T00:41:43;1.10;;;1.00;;
51122;SDS011;37162;41.724;13.346;2023-03-03T00:44:25;0.77;;;0.77;;
51122;SDS011;37162;41.724;13.346;2023-03-03T00:46:54;2.13;;;1.25;;
51122;SDS011;37162;41.724;13.346;2023-03-03T00:49:25;0.90;;;0.90;;
51122;SDS011;37162;41.724;13.346;2023-03-03T00:51:51;1.42;;;0.95;;
51122;SDS011;37162;41.724;13.346;2023-03-03T00:54:17;1.17;;;1.08;;
51122;SDS011;37162;41.724;13.346;2023-03-03T00:56:43;0.85;;;0.80;;
51122;SDS011;37162;41.724;13.346;2023-03-03T00:59:08;0.93;;;0.88;;
51122;SDS011;37162;41.724;13.346;2023-03-03T01:01:34;1.38;;;1.27;;
51122;SDS011;37162;41.724;13.346;2023-03-03T01:03:59;1.75;;;1.00;;
51122;SDS011;37162;41.724;13.346;2023-03-03T01:06:25;1.27;;;1.02;;
51122;SDS011;37162;41.724;13.346;2023-03-03T01:08:50;1.10;;;1.00;;
51122;SDS011;37162;41.724;13.346;2023-03-03T01:11:20;0.93;;;0.77;;
51122;SDS011;37162;41.724;13.346;2023-03-03T01:16:14;1.10;;;1.00;;
51122;SDS011;37162;41.724;13.346;2023-03-03T01:18:40;1.98;;;1.23;;
51122;SDS011;37162;41.724;13.346;2023-03-03T01:21:06;2.30;;;1.17;;
51122;SDS011;37162;41.724;13.346;2023-03-03T01:23:32;1.85;;;1.00;;
51122;SDS011;37162;41.724;13.346;2023-03-03T01:25:58;1.80;;;1.00;;
51122;SDS011;37162;41.724;13.346;2023-03-03T01:28:24;1.10;;;1.00;;
51122;SDS011;37162;41.724;13.346;2023-03-03T01:30:49;1.02;;;0.93;;
51122;SDS011;37162;41.724;13.346;2023-03-03T01:33:15;0.90;;;0.90;;
51122;SDS011;37162;41.724;13.346;2023-03-03T01:35:44;1.00;;;0.90;;
51122;SDS011;37162;41.724;13.346;2023-03-03T01:38:11;1.00;;;0.90;;
51122;SDS011;37162;41.724;13.346;2023-03-03T01:40:36;1.23;;;1.00;;
51122;SDS011;37162;41.724;13.346;2023-03-03T01:43:02;1.00;;;0.90;;
51122;SDS011;37162;41.724;13.346;2023-03-03T01:45:29;1.35;;;1.00;;
51122;SDS011;37162;41.724;13.346;2023-03-03T01:48:21;1.90;;;0.90;;
51122;SDS011;37162;41.724;13.346;2023-03-03T01:53:41;0.82;;;0.82;;
51122;SDS011;37162;41.724;13.346;2023-03-03T01:56:10;1.15;;;0.90;;
51122;SDS011;37162;41.724;13.346;2023-03-03T01:58:36;1.10;;;0.93;;
51122;SDS011;37162;41.724;13.346;2023-03-03T02:01:06;1.10;;;0.90;;
51122;SDS011;37162;41.724;13.346;2023-03-03T02:03:35;1.00;;;0.90;;
51122;SDS011;37162;41.724;13.346;2023-03-03T02:06:05;0.93;;;0.75;;
51122;SDS011;37162;41.724;13.346;2023-03-03T02:08:45;1.17;;;0.80;;
51122;SDS011;37162;41.724;13.346;2023-03-03T02:11:26;0.70;;;0.70;;
51122;SDS011;37162;41.724;13.346;2023-03-03T02:13:56;0.95;;;0.80;;
51122;SDS011;37162;41.724;13.346;2023-03-03T02:16:21;1.25;;;1.05;;
51122;SDS011;37162;41.724;13.346;2023-03-03T02:18:47;0.82;;;0.68;;
51122;SDS011;37162;41.724;13.346;2023-03-03T02:21:20;1.17;;;0.93;;
51122;SDS011;37162;41.724;13.346;2023-03-03T02:26:23;0.80;;;0.70;;
51122;SDS011;37162;41.724;13.346;2023-03-03T02:28:50;0.85;;;0.77;;
51122;SDS011;37162;41.724;13.346;2023-03-03T02:31:18;1.08;;;0.73;;
51122;SDS011;37162;41.724;13.346;2023-03-03T02:33:49;0.95;;;0.82;;
51122;SDS011;37162;41.724;13.346;2023-03-03T02:36:37;1.00;;;0.90;;
51122;SDS011;37162;41.724;13.346;2023-03-03T02:39:07;1.75;;;1.25;;
51122;SDS011;37162;41.724;13.346;2023-03-03T02:44:08;1.00;;;0.90;;
51122;SDS011;37162;41.724;13.346;2023-03-03T02:46:37;1.42;;;0.70;;
51122;SDS011;37162;41.724;13.346;2023-03-03T02:49:06;1.13;;;0.90;;
51122;SDS011;37162;41.724;13.346;2023-03-03T02:51:33;1.55;;;0.80;;
51122;SDS011;37162;41.724;13.346;2023-03-03T02:53:59;1.52;;;0.95;;
51122;SDS011;37162;41.724;13.346;2023-03-03T02:56:25;1.10;;;1.00;;
51122;SDS011;37162;41.724;13.346;2023-03-03T02:58:51;0.98;;;0.95;;
51122;SDS011;37162;41.724;13.346;2023-03-03T03:01:17;1.15;;;1.00;;
51122;SDS011;37162;41.724;13.346;2023-03-03T03:03:43;1.33;;;1.00;;
51122;SDS011;37162;41.724;13.346;2023-03-03T03:06:08;1.30;;;1.10;;
51122;SDS011;37162;41.724;13.346;2023-03-03T03:08:34;0.80;;;0.80;;
51122;SDS011;37162;41.724;13.346;2023-03-03T03:10:59;0.95;;;0.95;;
51122;SDS011;37162;41.724;13.346;2023-03-03T03:13:25;1.30;;;1.15;;
51122;SDS011;37162;41.724;13.346;2023-03-03T03:15:51;1.65;;;1.10;;
51122;SDS011;37162;41.724;13.346;2023-03-03T03:18:16;1.27;;;1.20;;
51122;SDS011;37162;41.724;13.346;2023-03-03T03:20:42;0.85;;;0.82;;
51122;SDS011;37162;41.724;13.346;2023-03-03T03:23:08;1.52;;;1.33;;
51122;SDS011;37162;41.724;13.346;2023-03-03T03:25:34;2.10;;;1.42;;
51122;SDS011;37162;41.724;13.346;2023-03-03T03:28:02;2.13;;;1.10;;
51122;SDS011;37162;41.724;13.346;2023-03-03T03:30:27;0.82;;;0.82;;
51122;SDS011;37162;41.724;13.346;2023-03-03T03:32:53;1.10;;;1.00;;
51122;SDS011;37162;41.724;13.346;2023-03-03T03:35:18;1.20;;;1.10;;
51122;SDS011;37162;41.724;13.346;2023-03-03T03:37:43;1.23;;;1.13;;
51122;SDS011;37162;41.724;13.346;2023-03-03T03:40:09;1.25;;;1.10;;
51122;SDS011;37162;41.724;13.346;2023-03-03T03:42:36;2.28;;;1.55;;
51122;SDS011;37162;41.724;13.346;2023-03-03T03:45:03;1.08;;;0.98;;
51122;SDS011;37162;41.724;13.346;2023-03-03T03:47:29;1.00;;;0.90;;
51122;SDS011;37162;41.724;13.346;2023-03-03T03:49:54;1.20;;;1.10;;
51122;SDS011;37162;41.724;13.346;2023-03-03T03:52:20;1.23;;;1.13;;
51122;SDS011;37162;41.724;13.346;2023-03-03T03:54:45;1.10;;;1.00;;
51122;SDS011;37162;41.724;13.346;2023-03-03T03:57:11;2.67;;;1.00;;
51122;SDS011;37162;41.724;13.346;2023-03-03T03:59:36;1.05;;;1.00;;
51122;SDS011;37162;41.724;13.346;2023-03-03T04:02:02;0.95;;;0.95;;
51122;SDS011;37162;41.724;13.346;2023-03-03T04:04:28;1.50;;;0.90;;
51122;SDS011;37162;41.724;13.346;2023-03-03T04:06:53;0.95;;;0.88;;
51122;SDS011;37162;41.724;13.346;2023-03-03T04:09:19;2.42;;;1.05;;
51122;SDS011;37162;41.724;13.346;2023-03-03T04:11:44;1.40;;;1.20;;
51122;SDS011;37162;41.724;13.346;2023-03-03T04:14:09;1.13;;;1.02;;
51122;SDS011;37162;41.724;13.346;2023-03-03T04:16:35;3.40;;;1.00;;
51122;SDS011;37162;41.724;13.346;2023-03-03T04:19:00;0.90;;;0.90;;
51122;SDS011;37162;41.724;13.346;2023-03-03T04:21:26;1.65;;;1.10;;
51122;SDS011;37162;41.724;13.346;2023-03-03T04:23:52;1.08;;;0.98;;
51122;SDS011;37162;41.724;13.346;2023-03-03T04:26:17;1.17;;;1.00;;
51122;SDS011;37162;41.724;13.346;2023-03-03T04:28:43;1.17;;;0.98;;
51122;SDS011;37162;41.724;13.346;2023-03-03T04:31:08;1.23;;;0.73;;
51122;SDS011;37162;41.724;13.346;2023-03-03T04:33:34;1.10;;;1.00;;
51122;SDS011;37162;41.724;13.346;2023-03-03T04:36:00;2.13;;;1.00;;
51122;SDS011;37162;41.724;13.346;2023-03-03T04:38:25;1.00;;;0.95;;
51122;SDS011;37162;41.724;13.346;2023-03-03T04:40:51;1.23;;;1.02;;
51122;SDS011;37162;41.724;13.346;2023-03-03T04:43:16;1.95;;;1.10;;
51122;SDS011;37162;41.724;13.346;2023-03-03T04:45:42;1.40;;;1.05;;
51122;SDS011;37162;41.724;13.346;2023-03-03T04:48:08;0.85;;;0.82;;
51122;SDS011;37162;41.724;13.346;2023-03-03T04:50:33;1.13;;;0.90;;
51122;SDS011;37162;41.724;13.346;2023-03-03T04:52:59;1.52;;;0.82;;
51122;SDS011;37162;41.724;13.346;2023-03-03T04:55:24;0.95;;;0.85;;
51122;SDS011;37162;41.724;13.346;2023-03-03T04:57:50;1.05;;;0.93;;
51122;SDS011;37162;41.724;13.346;2023-03-03T05:00:15;0.95;;;0.90;;
51122;SDS011;37162;41.724;13.346;2023-03-03T05:02:41;0.82;;;0.60;;
51122;SDS011;37162;41.724;13.346;2023-03-03T05:05:07;1.00;;;0.90;;
51122;SDS011;37162;41.724;13.346;2023-03-03T05:07:37;0.90;;;0.90;;
51122;SDS011;37162;41.724;13.346;2023-03-03T05:10:03;1.27;;;0.80;;
51122;SDS011;37162;41.724;13.346;2023-03-03T05:12:29;0.70;;;0.70;;
51122;SDS011;37162;41.724;13.346;2023-03-03T05:14:55;1.05;;;0.80;;
51122;SDS011;37162;41.724;13.346;2023-03-03T05:17:20;0.88;;;0.88;;
51122;SDS011;37162;41.724;13.346;2023-03-03T05:19:46;1.05;;;0.93;;
51122;SDS011;37162;41.724;13.346;2023-03-03T05:22:11;1.27;;;0.85;;
51122;SDS011;37162;41.724;13.346;2023-03-03T05:24:37;0.85;;;0.85;;
51122;SDS011;37162;41.724;13.346;2023-03-03T05:27:02;1.00;;;0.88;;
51122;SDS011;37162;41.724;13.346;2023-03-03T05:29:28;1.55;;;0.95;;
51122;SDS011;37162;41.724;13.346;2023-03-03T05:31:55;1.95;;;0.80;;
51122;SDS011;37162;41.724;13.346;2023-03-03T05:34:24;2.38;;;1.00;;
51122;SDS011;37162;41.724;13.346;2023-03-03T05:36:49;1.40;;;0.98;;
51122;SDS011;37162;41.724;13.346;2023-03-03T05:39:14;1.27;;;0.95;;
51122;SDS011;37162;41.724;13.346;2023-03-03T05:41:40;0.70;;;0.70;;
51122;SDS011;37162;41.724;13.346;2023-03-03T05:44:05;1.45;;;0.80;;
51122;SDS011;37162;41.724;13.346;2023-03-03T05:46:31;1.35;;;0.82;;
51122;SDS011;37162;41.724;13.346;2023-03-03T05:48:57;0.63;;;0.63;;
51122;SDS011;37162;41.724;13.346;2023-03-03T05:51:23;3.03;;;0.90;;
51122;SDS011;37162;41.724;13.346;2023-03-03T05:53:48;0.68;;;0.68;;
51122;SDS011;37162;41.724;13.346;2023-03-03T05:56:14;0.52;;;0.52;;
51122;SDS011;37162;41.724;13.346;2023-03-03T05:58:39;0.70;;;0.70;;
51122;SDS011;37162;41.724;13.346;2023-03-03T06:01:05;1.05;;;0.80;;
51122;SDS011;37162;41.724;13.346;2023-03-03T06:03:30;1.02;;;0.70;;
51122;SDS011;37162;41.724;13.346;2023-03-03T06:05:56;0.70;;;0.70;;
51122;SDS011;37162;41.724;13.346;2023-03-03T06:08:21;0.95;;;0.88;;
51122;SDS011;37162;41.724;13.346;2023-03-03T06:10:47;1.25;;;0.95;;
51122;SDS011;37162;41.724;13.346;2023-03-03T06:13:12;2.33;;;1.10;;
51122;SDS011;37162;41.724;13.346;2023-03-03T06:15:37;1.55;;;0.90;;
51122;SDS011;37162;41.724;13.346;2023-03-03T06:18:03;1.17;;;0.95;;
51122;SDS011;37162;41.724;13.346;2023-03-03T06:20:29;0.55;;;0.55;;
51122;SDS011;37162;41.724;13.346;2023-03-03T06:22:54;0.88;;;0.80;;
51122;SDS011;37162;41.724;13.346;2023-03-03T06:25:20;0.70;;;0.70;;
51122;SDS011;37162;41.724;13.346;2023-03-03T06:27:46;1.38;;;1.00;;
51122;SDS011;37162;41.724;13.346;2023-03-03T06:30:11;1.15;;;1.00;;
51122;SDS011;37162;41.724;13.346;2023-03-03T06:32:37;1.25;;;0.85;;
51122;SDS011;37162;41.724;13.346;2023-03-03T06:35:04;1.58;;;1.00;;
51122;SDS011;37162;41.724;13.346;2023-03-03T06:37:30;1.10;;;0.90;;
51122;SDS011;37162;41.724;13.346;2023-03-03T06:39:55;1.92;;;1.20;;
51122;SDS011;37162;41.724;13.346;2023-03-03T06:42:20;0.90;;;0.90;;
51122;SDS011;37162;41.724;13.346;2023-03-03T06:44:48;1.45;;;1.33;;
51122;SDS011;37162;41.724;13.346;2023-03-03T06:47:14;1.23;;;0.90;;
51122;SDS011;37162;41.724;13.346;2023-03-03T06:49:39;0.98;;;0.93;;
51122;SDS011;37162;41.724;13.346;2023-03-03T06:52:16;1.45;;;1.10;;
51122;SDS011;37162;41.724;13.346;2023-03-03T06:54:46;0.85;;;0.80;;
51122;SDS011;37162;41.724;13.346;2023-03-03T06:57:16;1.23;;;0.95;;
51122;SDS011;37162;41.724;13.346;2023-03-03T06:59:43;1.17;;;1.08;;
51122;SDS011;37162;41.724;13.346;2023-03-03T07:02:15;1.02;;;0.93;;
51122;SDS011;37162;41.724;13.346;2023-03-03T07:04:41;2.00;;;1.00;;
51122;SDS011;37162;41.724;13.346;2023-03-03T07:07:10;1.38;;;1.27;;
51122;SDS011;37162;41.724;13.346;2023-03-03T07:09:45;1.80;;;0.95;;
51122;SDS011;37162;41.724;13.346;2023-03-03T07:12:14;2.05;;;1.10;;
51122;SDS011;37162;41.724;13.346;2023-03-03T07:14:49;1.20;;;0.93;;
51122;SDS011;37162;41.724;13.346;2023-03-03T07:17:20;1.05;;;0.95;;
51122;SDS011;37162;41.724;13.346;2023-03-03T07:19:47;1.33;;;1.00;;
51122;SDS011;37162;41.724;13.346;2023-03-03T07:22:18;1.70;;;1.20;;
51122;SDS011;37162;41.724;13.346;2023-03-03T07:24:46;1.65;;;1.10;;
51122;SDS011;37162;41.724;13.346;2023-03-03T07:27:24;1.77;;;1.17;;
51122;SDS011;37162;41.724;13.346;2023-03-03T07:29:52;0.88;;;0.85;;
51122;SDS011;37162;41.724;13.346;2023-03-03T07:41:13;2.50;;;1.30;;
51122;SDS011;37162;41.724;13.346;2023-03-03T07:46:33;1.58;;;1.27;;
51122;SDS011;37162;41.724;13.346;2023-03-03T07:49:21;2.40;;;1.33;;
51122;SDS011;37162;41.724;13.346;2023-03-03T07:51:47;2.80;;;1.25;;
51122;SDS011;37162;41.724;13.346;2023-03-03T07:54:37;1.98;;;1.45;;
51122;SDS011;37162;41.724;13.346;2023-03-03T07:59:51;1.98;;;1.40;;
51122;SDS011;37162;41.724;13.346;2023-03-03T08:04:47;1.58;;;1.48;;
51122;SDS011;37162;41.724;13.346;2023-03-03T08:07:17;1.48;;;1.35;;
51122;SDS011;37162;41.724;13.346;2023-03-03T08:09:50;2.03;;;1.75;;
51122;SDS011;37162;41.724;13.346;2023-03-03T08:14:52;17.07;;;2.00;;
51122;SDS011;37162;41.724;13.346;2023-03-03T08:17:20;10.50;;;1.90;;
51122;SDS011;37162;41.724;13.346;2023-03-03T08:19:55;8.93;;;2.40;;
51122;SDS011;37162;41.724;13.346;2023-03-03T08:24:54;13.27;;;1.70;;
51122;SDS011;37162;41.724;13.346;2023-03-03T08:27:19;18.05;;;2.60;;
51122;SDS011;37162;41.724;13.346;2023-03-03T08:29:45;12.98;;;1.85;;
51122;SDS011;37162;41.724;13.346;2023-03-03T08:32:10;10.43;;;3.22;;
51122;SDS011;37162;41.724;13.346;2023-03-03T08:34:36;13.63;;;2.47;;
51122;SDS011;37162;41.724;13.346;2023-03-03T08:37:01;7.82;;;2.22;;
51122;SDS011;37162;41.724;13.346;2023-03-03T08:39:27;3.80;;;1.65;;
51122;SDS011;37162;41.724;13.346;2023-03-03T08:41:52;9.15;;;1.50;;
51122;SDS011;37162;41.724;13.346;2023-03-03T08:44:18;4.10;;;1.65;;
51122;SDS011;37162;41.724;13.346;2023-03-03T08:46:44;10.27;;;1.60;;
51122;SDS011;37162;41.724;13.346;2023-03-03T08:49:10;6.22;;;1.58;;
51122;SDS011;37162;41.724;13.346;2023-03-03T08:51:35;1.85;;;1.42;;
51122;SDS011;37162;41.724;13.346;2023-03-03T08:54:01;6.88;;;1.70;;
51122;SDS011;37162;41.724;13.346;2023-03-03T08:56:26;6.45;;;1.45;;
51122;SDS011;37162;41.724;13.346;2023-03-03T08:58:52;5.47;;;1.40;;
51122;SDS011;37162;41.724;13.346;2023-03-03T09:01:17;6.35;;;1.60;;
51122;SDS011;37162;41.724;13.346;2023-03-03T09:03:43;8.40;;;1.80;;
51122;SDS011;37162;41.724;13.346;2023-03-03T09:06:09;5.38;;;1.50;;
51122;SDS011;37162;41.724;13.346;2023-03-03T09:08:36;4.45;;;1.05;;
51122;SDS011;37162;41.724;13.346;2023-03-03T09:11:02;1.85;;;1.48;;
51122;SDS011;37162;41.724;13.346;2023-03-03T09:13:35;2.17;;;1.30;;
51122;SDS011;37162;41.724;13.346;2023-03-03T09:16:01;3.72;;;1.25;;
51122;SDS011;37162;41.724;13.346;2023-03-03T09:18:37;4.25;;;1.38;;
51122;SDS011;37162;41.724;13.346;2023-03-03T09:21:18;3.92;;;1.83;;
51122;SDS011;37162;41.724;13.346;2023-03-03T09:23:48;4.13;;;2.05;;
51122;SDS011;37162;41.724;13.346;2023-03-03T09:31:44;2.15;;;1.50;;
51122;SDS011;37162;41.724;13.346;2023-03-03T09:36:42;2.25;;;1.55;;
51122;SDS011;37162;41.724;13.346;2023-03-03T09:39:13;3.97;;;1.85;;
51122;SDS011;37162;41.724;13.346;2023-03-03T09:41:45;1.85;;;1.20;;
51122;SDS011;37162;41.724;13.346;2023-03-03T09:44:36;4.70;;;1.42;;
51122;SDS011;37162;41.724;13.346;2023-03-03T09:47:31;4.70;;;1.50;;
51122;SDS011;37162;41.724;13.346;2023-03-03T10:09:09;3.33;;;1.48;;
51122;SDS011;37162;41.724;13.346;2023-03-03T10:23:36;1.27;;;1.17;;
51122;SDS011;37162;41.724;13.346;2023-03-03T11:09:51;5.45;;;2.83;;
51122;SDS011;37162;41.724;13.346;2023-03-03T11:12:31;6.25;;;2.72;;
51122;SDS011;37162;41.724;13.346;2023-03-03T11:17:57;4.68;;;2.30;;
51122;SDS011;37162;41.724;13.346;2023-03-03T11:20:37;3.95;;;1.63;;
51122;SDS011;37162;41.724;13.346;2023-03-03T11:31:25;3.78;;;2.30;;
51122;SDS011;37162;41.724;13.346;2023-03-03T11:39:02;5.15;;;1.80;;
51122;SDS011;37162;41.724;13.346;2023-03-03T11:49:47;2.42;;;1.70;;
51122;SDS011;37162;41.724;13.346;2023-03-03T11:57:55;1.60;;;1.38;;
51122;SDS011;37162;41.724;13.346;2023-03-03T12:00:36;2.88;;;1.77;;
51122;SDS011;37162;41.724;13.346;2023-03-03T12:11:37;2.70;;;1.35;;
51122;SDS011;37162;41.724;13.346;2023-03-03T12:14:19;1.48;;;1.20;;
51122;SDS011;37162;41.724;13.346;2023-03-03T12:17:10;4.38;;;1.73;;
51122;SDS011;37162;41.724;13.346;2023-03-03T12:50:52;2.63;;;1.52;;
51122;SDS011;37162;41.724;13.346;2023-03-03T12:56:08;6.57;;;1.40;;
51122;SDS011;37162;41.724;13.346;2023-03-03T13:01:40;2.90;;;1.27;;
51122;SDS011;37162;41.724;13.346;2023-03-03T13:04:27;2.38;;;1.23;;
51122;SDS011;37162;41.724;13.346;2023-03-03T13:07:08;1.33;;;1.20;;
51122;SDS011;37162;41.724;13.346;2023-03-03T13:09:43;1.33;;;1.10;;
51122;SDS011;37162;41.724;13.346;2023-03-03T13:15:24;1.85;;;1.20;;
51122;SDS011;37162;41.724;13.346;2023-03-03T13:31:18;5.03;;;1.55;;
51122;SDS011;37162;41.724;13.346;2023-03-03T13:33:49;1.73;;;1.23;;
51122;SDS011;37162;41.724;13.346;2023-03-03T13:36:18;1.30;;;1.20;;
51122;SDS011;37162;41.724;13.346;2023-03-03T13:38:56;1.27;;;1.10;;
51122;SDS011;37162;41.724;13.346;2023-03-03T13:44:05;2.50;;;1.17;;
51122;SDS011;37162;41.724;13.346;2023-03-03T13:57:19;3.35;;;1.10;;
51122;SDS011;37162;41.724;13.346;2023-03-03T14:06:17;1.25;;;1.15;;
51122;SDS011;37162;41.724;13.346;2023-03-03T14:11:11;3.22;;;1.15;;
51122;SDS011;37162;41.724;13.346;2023-03-03T14:19:27;2.05;;;1.13;;
51122;SDS011;37162;41.724;13.346;2023-03-03T14:27:39;2.35;;;1.38;;
51122;SDS011;37162;41.724;13.346;2023-03-03T14:35:38;2.03;;;1.50;;
51122;SDS011;37162;41.724;13.346;2023-03-03T14:38:15;1.98;;;1.17;;
51122;SDS011;37162;41.724;13.346;2023-03-03T14:40:44;1.25;;;1.02;;
51122;SDS011;37162;41.724;13.346;2023-03-03T14:43:24;1.73;;;1.45;;
51122;SDS011;37162;41.724;13.346;2023-03-03T14:45:57;2.10;;;1.30;;
51122;SDS011;37162;41.724;13.346;2023-03-03T14:48:50;1.13;;;1.00;;
51122;SDS011;37162;41.724;13.346;2023-03-03T14:54:08;1.70;;;1.10;;
51122;SDS011;37162;41.724;13.346;2023-03-03T14:57:02;1.27;;;1.17;;
51122;SDS011;37162;41.724;13.346;2023-03-03T14:59:31;1.35;;;1.23;;
51122;SDS011;37162;41.724;13.346;2023-03-03T15:04:40;2.13;;;1.30;;
51122;SDS011;37162;41.724;13.346;2023-03-03T15:09:57;0.98;;;0.90;;
51122;SDS011;37162;41.724;13.346;2023-03-03T15:12:23;1.90;;;1.40;;
51122;SDS011;37162;41.724;13.346;2023-03-03T15:17:29;2.15;;;1.42;;
51122;SDS011;37162;41.724;13.346;2023-03-03T15:22:50;1.48;;;1.20;;
51122;SDS011;37162;41.724;13.346;2023-03-03T15:25:40;1.75;;;1.30;;
51122;SDS011;37162;41.724;13.346;2023-03-03T15:36:07;1.10;;;1.00;;
51122;SDS011;37162;41.724;13.346;2023-03-03T15:49:54;1.85;;;1.40;;
51122;SDS011;37162;41.724;13.346;2023-03-03T16:03:13;1.83;;;1.30;;
51122;SDS011;37162;41.724;13.346;2023-03-03T16:08:37;1.40;;;1.30;;
51122;SDS011;37162;41.724;13.346;2023-03-03T16:11:14;2.78;;;1.20;;
51122;SDS011;37162;41.724;13.346;2023-03-03T16:19:40;1.58;;;1.45;;
51122;SDS011;37162;41.724;13.346;2023-03-03T16:27:42;2.22;;;1.48;;
51122;SDS011;37162;41.724;13.346;2023-03-03T16:32:52;3.45;;;1.48;;
51122;SDS011;37162;41.724;13.346;2023-03-03T16:35:34;1.98;;;1.40;;
51122;SDS011;37162;41.724;13.346;2023-03-03T16:40:31;2.72;;;1.65;;
51122;SDS011;37162;41.724;13.346;2023-03-03T16:45:49;2.38;;;1.90;;
51122;SDS011;37162;41.724;13.346;2023-03-03T16:48:30;2.15;;;1.83;;
51122;SDS011;37162;41.724;13.346;2023-03-03T16:51:25;2.97;;;1.80;;
51122;SDS011;37162;41.724;13.346;2023-03-03T16:54:05;2.17;;;1.58;;
51122;SDS011;37162;41.724;13.346;2023-03-03T17:07:18;7.03;;;2.20;;
51122;SDS011;37162;41.724;13.346;2023-03-03T17:10:13;4.10;;;2.60;;
51122;SDS011;37162;41.724;13.346;2023-03-03T17:24:21;3.65;;;2.38;;
51122;SDS011;37162;41.724;13.346;2023-03-03T17:37:47;5.35;;;3.25;;
51122;SDS011;37162;41.724;13.346;2023-03-03T17:40:35;5.15;;;3.22;;
51122;SDS011;37162;41.724;13.346;2023-03-03T17:43:20;6.30;;;3.58;;
51122;SDS011;37162;41.724;13.346;2023-03-03T17:45:53;4.63;;;3.10;;
51122;SDS011;37162;41.724;13.346;2023-03-03T17:56:39;5.80;;;3.97;;
51122;SDS011;37162;41.724;13.346;2023-03-03T18:07:59;5.30;;;3.97;;
51122;SDS011;37162;41.724;13.346;2023-03-03T18:13:20;6.38;;;3.83;;
51122;SDS011;37162;41.724;13.346;2023-03-03T18:22:40;8.52;;;4.40;;
51122;SDS011;37162;41.724;13.346;2023-03-03T18:24:54;7.05;;;3.40;;
51122;SDS011;37162;41.724;13.346;2023-03-03T18:40:47;4.93;;;3.70;;
51122;SDS011;37162;41.724;13.346;2023-03-03T18:46:04;5.28;;;3.72;;
51122;SDS011;37162;41.724;13.346;2023-03-03T18:56:45;5.18;;;3.72;;
51122;SDS011;37162;41.724;13.346;2023-03-03T19:04:42;4.03;;;3.15;;
51122;SDS011;37162;41.724;13.346;2023-03-03T19:07:19;5.45;;;3.08;;
51122;SDS011;37162;41.724;13.346;2023-03-03T19:18:01;5.20;;;3.17;;
51122;SDS011;37162;41.724;13.346;2023-03-03T19:20:38;6.38;;;3.65;;
51122;SDS011;37162;41.724;13.346;2023-03-03T19:23:09;4.10;;;3.40;;
51122;SDS011;37162;41.724;13.346;2023-03-03T19:25:38;5.70;;;3.53;;
51122;SDS011;37162;41.724;13.346;2023-03-03T19:31:36;4.30;;;3.58;;
51122;SDS011;37162;41.724;13.346;2023-03-03T19:34:33;4.40;;;2.97;;
51122;SDS011;37162;41.724;13.346;2023-03-03T19:40:02;4.55;;;3.08;;
51122;SDS011;37162;41.724;13.346;2023-03-03T19:42:50;4.03;;;3.00;;
51122;SDS011;37162;41.724;13.346;2023-03-03T19:56:51;4.85;;;3.45;;
51122;SDS011;37162;41.724;13.346;2023-03-03T20:33:42;4.30;;;3.03;;
51122;SDS011;37162;41.724;13.346;2023-03-03T20:38:58;4.53;;;2.92;;
51122;SDS011;37162;41.724;13.346;2023-03-03T20:44:21;4.13;;;2.70;;
51122;SDS011;37162;41.724;13.346;2023-03-03T20:57:34;2.88;;;2.33;;
51122;SDS011;37162;41.724;13.346;2023-03-03T21:05:25;3.05;;;2.30;;
51122;SDS011;37162;41.724;13.346;2023-03-03T21:07:59;2.35;;;2.13;;
51122;SDS011;37162;41.724;13.346;2023-03-03T21:10:27;2.63;;;1.95;;
51122;SDS011;37162;41.724;13.346;2023-03-03T21:12:56;2.22;;;2.00;;
51122;SDS011;37162;41.724;13.346;2023-03-03T21:15:30;2.28;;;1.80;;
51122;SDS011;37162;41.724;13.346;2023-03-03T21:18:01;2.45;;;2.15;;
51122;SDS011;37162;41.724;13.346;2023-03-03T21:20:45;2.60;;;2.00;;
51122;SDS011;37162;41.724;13.346;2023-03-03T21:23:10;3.30;;;1.95;;
51122;SDS011;37162;41.724;13.346;2023-03-03T21:33:38;1.83;;;1.60;;
51122;SDS011;37162;41.724;13.346;2023-03-03T21:36:05;4.35;;;1.80;;
51122;SDS011;37162;41.724;13.346;2023-03-03T21:38:31;2.33;;;1.90;;
51122;SDS011;37162;41.724;13.346;2023-03-03T21:41:01;3.17;;;1.90;;
51122;SDS011;37162;41.724;13.346;2023-03-03T21:43:34;1.77;;;1.58;;
51122;SDS011;37162;41.724;13.346;2023-03-03T21:46:04;2.88;;;1.73;;
51122;SDS011;37162;41.724;13.346;2023-03-03T21:48:30;1.90;;;1.48;;
51122;SDS011;37162;41.724;13.346;2023-03-03T21:50:56;2.78;;;1.85;;
51122;SDS011;37162;41.724;13.346;2023-03-03T21:53:21;1.52;;;1.42;;
51122;SDS011;37162;41.724;13.346;2023-03-03T21:55:48;1.90;;;1.60;;
51122;SDS011;37162;41.724;13.346;2023-03-03T21:58:17;2.20;;;1.60;;
51122;SDS011;37162;41.724;13.346;2023-03-03T22:00:42;2.33;;;2.00;;
51122;SDS011;37162;41.724;13.346;2023-03-03T22:03:08;1.50;;;1.35;;
51122;SDS011;37162;41.724;13.346;2023-03-03T22:05:34;1.73;;;1.48;;
51122;SDS011;37162;41.724;13.346;2023-03-03T22:08:00;1.60;;;1.50;;
51122;SDS011;37162;41.724;13.346;2023-03-03T22:10:25;1.52;;;1.40;;
51122;SDS011;37162;41.724;13.346;2023-03-03T22:12:51;2.58;;;1.55;;
51122;SDS011;37162;41.724;13.346;2023-03-03T22:15:16;1.52;;;1.40;;
51122;SDS011;37162;41.724;13.346;2023-03-03T22:17:42;2.33;;;1.70;;
51122;SDS011;37162;41.724;13.346;2023-03-03T22:20:08;1.85;;;1.67;;
51122;SDS011;37162;41.724;13.346;2023-03-03T22:22:34;1.85;;;1.65;;
51122;SDS011;37162;41.724;13.346;2023-03-03T22:25:00;2.05;;;1.73;;
51122;SDS011;37162;41.724;13.346;2023-03-03T22:27:25;1.73;;;1.60;;
51122;SDS011;37162;41.724;13.346;2023-03-03T22:29:51;1.58;;;1.35;;
51122;SDS011;37162;41.724;13.346;2023-03-03T22:32:16;1.88;;;1.45;;
51122;SDS011;37162;41.724;13.346;2023-03-03T22:34:42;2.10;;;1.63;;
51122;SDS011;37162;41.724;13.346;2023-03-03T22:37:07;2.08;;;1.50;;
51122;SDS011;37162;41.724;13.346;2023-03-03T22:39:32;2.70;;;1.85;;
51122;SDS011;37162;41.724;13.346;2023-03-03T22:41:58;2.13;;;1.40;;
51122;SDS011;37162;41.724;13.346;2023-03-03T22:44:23;2.22;;;1.80;;
51122;SDS011;37162;41.724;13.346;2023-03-03T22:46:49;2.08;;;1.58;;
51122;SDS011;37162;41.724;13.346;2023-03-03T22:49:14;1.88;;;1.40;;
51122;SDS011;37162;41.724;13.346;2023-03-03T22:51:39;2.05;;;1.33;;
51122;SDS011;37162;41.724;13.346;2023-03-03T22:54:05;2.33;;;1.83;;
51122;SDS011;37162;41.724;13.346;2023-03-03T22:56:30;2.83;;;1.70;;
51122;SDS011;37162;41.724;13.346;2023-03-03T22:58:56;2.65;;;1.92;;
51122;SDS011;37162;41.724;13.346;2023-03-03T23:01:21;2.33;;;1.77;;
51122;SDS011;37162;41.724;13.346;2023-03-03T23:03:50;2.88;;;1.60;;
51122;SDS011;37162;41.724;13.346;2023-03-03T23:06:15;2.30;;;1.92;;